Time;durP1;ratioP1;P1;durP2;ratioP2;P2;SDS_P1;SDS_P2;PMS_P1;PMS_P2;Temp;Humidity;BMP_temperature;BMP_pressure;BME280_temperature;BME280_humidity;BME280_pressure;Samples;Min_cycle;Max_cycle;Signal;HPM_P1;HPM_P2
2023/01/23 00:01:14;;;;;;;43.47;21.63;;;-4.20;99.90;;;;;;5018639;28;20358;-79
2023/01/23 00:03:40;;;;;;;46.43;23.37;;;-4.10;99.90;;;;;;5018024;28;20076;-79
2023/01/23 00:06:10;;;;;;;42.30;20.73;;;-4.10;99.90;;;;;;5035801;28;20025;-79
2023/01/23 00:08:36;;;;;;;34.93;18.80;;;-4.00;99.90;;;;;;5035711;28;20105;-79
2023/01/23 00:11:07;;;;;;;29.10;16.60;;;-4.10;99.90;;;;;;5036021;28;20033;-79
2023/01/23 00:13:34;;;;;;;30.70;17.93;;;-4.10;99.90;;;;;;5035920;28;20072;-79
2023/01/23 00:16:06;;;;;;;29.93;16.97;;;-4.10;99.90;;;;;;5034361;28;20378;-79
2023/01/23 00:18:32;;;;;;;29.20;16.37;;;-4.10;99.90;;;;;;5035712;28;20148;-79
2023/01/23 00:20:58;;;;;;;33.40;17.50;;;-4.10;99.90;;;;;;5035695;28;20051;-79
2023/01/23 00:23:23;;;;;;;27.87;15.83;;;-4.20;99.90;;;;;;5035697;28;20033;-79
2023/01/23 00:25:49;;;;;;;33.77;17.57;;;-4.30;99.90;;;;;;5035740;28;20025;-79
2023/01/23 00:28:14;;;;;;;32.27;17.37;;;-4.30;99.90;;;;;;5035683;28;20053;-79
2023/01/23 00:30:40;;;;;;;30.37;18.00;;;-4.30;99.90;;;;;;5035392;28;20352;-79
2023/01/23 00:33:05;;;;;;;30.00;17.83;;;-4.30;99.90;;;;;;5035322;28;20032;-79
2023/01/23 00:35:34;;;;;;;28.97;17.03;;;-4.30;99.90;;;;;;5035590;28;20029;-79
2023/01/23 00:37:59;;;;;;;31.87;17.83;;;-4.20;99.90;;;;;;5035244;28;20029;-80
2023/01/23 00:40:25;;;;;;;29.53;17.13;;;-4.20;99.90;;;;;;5035173;28;20046;-79
2023/01/23 00:42:50;;;;;;;33.40;17.27;;;-4.20;99.90;;;;;;5035100;28;20021;-79
2023/01/23 00:45:16;;;;;;;31.97;17.50;;;-4.20;99.90;;;;;;5017546;28;20025;-79
2023/01/23 00:47:42;;;;;;;39.90;20.53;;;-4.20;99.90;;;;;;5035256;28;20052;-79
2023/01/23 00:50:08;;;;;;;39.07;21.43;;;-4.20;99.90;;;;;;5017239;28;20030;-79
2023/01/23 00:52:33;;;;;;;41.07;21.37;;;-4.20;99.90;;;;;;5017026;28;20022;-79
2023/01/23 00:54:59;;;;;;;37.90;20.73;;;-4.20;99.90;;;;;;5034989;28;20033;-79
2023/01/23 00:57:25;;;;;;;36.67;20.27;;;-4.20;99.90;;;;;;5017547;28;20053;-79
2023/01/23 00:59:50;;;;;;;36.73;19.80;;;-4.20;99.90;;;;;;5034755;28;20028;-79
2023/01/23 01:02:16;;;;;;;37.97;21.50;;;-4.20;99.90;;;;;;5035040;28;20030;-79
2023/01/23 01:04:41;;;;;;;43.70;20.33;;;-4.20;99.90;;;;;;5034722;28;20037;-79
2023/01/23 01:07:07;;;;;;;38.47;21.27;;;-4.20;99.90;;;;;;5034749;28;20075;-79
2023/01/23 01:09:32;;;;;;;37.00;21.20;;;-4.20;99.90;;;;;;5034618;28;20022;-79
2023/01/23 01:11:58;;;;;;;38.10;21.30;;;-4.20;99.90;;;;;;5034667;28;20021;-79
2023/01/23 01:14:24;;;;;;;37.27;20.93;;;-4.20;99.90;;;;;;5034625;28;20021;-79
2023/01/23 01:16:49;;;;;;;37.03;20.63;;;-4.20;99.90;;;;;;5034515;28;20021;-79
2023/01/23 01:19:17;;;;;;;38.10;21.90;;;-4.20;99.90;;;;;;5034661;28;20030;-79
2023/01/23 01:21:43;;;;;;;39.97;22.60;;;-4.20;99.90;;;;;;5034386;28;20021;-79
2023/01/23 01:24:09;;;;;;;46.10;24.80;;;-4.20;99.90;;;;;;5034597;28;20486;-79
2023/01/23 01:26:35;;;;;;;67.03;33.10;;;-4.20;99.90;;;;;;5016570;28;20099;-79
2023/01/23 01:29:02;;;;;;;102.73;47.37;;;-4.20;99.90;;;;;;5033717;28;20021;-79
2023/01/23 01:31:28;;;;;;;95.37;45.97;;;-4.10;99.90;;;;;;5034655;28;20029;-79
2023/01/23 01:33:53;;;;;;;91.67;44.47;;;-4.10;99.90;;;;;;5034685;28;20037;-79
2023/01/23 01:36:21;;;;;;;65.10;32.57;;;-4.10;99.90;;;;;;5034164;28;20426;-79
2023/01/23 01:38:47;;;;;;;50.00;27.20;;;-4.10;99.90;;;;;;5034127;28;20024;-80
2023/01/23 01:41:14;;;;;;;45.43;24.67;;;-4.10;99.90;;;;;;5034018;28;20061;-79
2023/01/23 01:43:40;;;;;;;43.47;24.30;;;-4.10;99.90;;;;;;5033959;28;20025;-79
2023/01/23 01:46:35;;;;;;;44.77;24.80;;;-4.00;99.90;;;;;;5034134;28;20087;-79
2023/01/23 01:49:25;;;;;;;41.17;22.00;;;-4.00;99.90;;;;;;5017084;28;20033;-79
2023/01/23 01:52:03;;;;;;;42.83;22.67;;;-4.00;99.90;;;;;;5033947;28;20461;-79
2023/01/23 01:54:33;;;;;;;39.60;22.73;;;-4.10;99.90;;;;;;5016124;28;20030;-79
2023/01/23 01:57:04;;;;;;;42.60;23.23;;;-4.10;99.90;;;;;;5033999;28;20373;-80
2023/01/23 01:59:34;;;;;;;37.47;22.40;;;-4.10;99.90;;;;;;5015857;28;20084;-79
2023/01/23 02:02:09;;;;;;;41.37;23.50;;;-4.10;99.90;;;;;;5033929;28;20025;-79
2023/01/23 02:04:39;;;;;;;40.55;22.85;;;-4.10;99.90;;;;;;5015777;28;20379;-79
2023/01/23 02:07:13;;;;;;;43.23;22.93;;;-4.10;99.90;;;;;;5033574;28;20022;-79
2023/01/23 02:09:40;;;;;;;43.93;23.57;;;-4.00;99.90;;;;;;5033793;28;20025;-79
2023/01/23 02:12:05;;;;;;;44.77;24.70;;;-4.00;99.90;;;;;;5023372;28;20029;-84
2023/01/23 02:14:31;;;;;;;43.57;24.33;;;-4.00;99.90;;;;;;5017890;28;20040;-84
2023/01/23 02:16:59;;;;;;;45.87;24.80;;;-3.90;99.90;;;;;;5018445;28;20088;-83
2023/01/23 02:19:50;;;;;;;45.10;23.67;;;-3.90;99.90;;;;;;5018096;28;20031;-84
2023/01/23 02:22:31;;;;;;;47.87;24.00;;;-3.90;99.90;;;;;;5017479;28;20030;-83
2023/01/23 02:25:17;;;;;;;39.43;22.17;;;-3.90;99.90;;;;;;5013845;28;20084;-76
2023/01/23 02:27:42;;;;;;;44.03;22.77;;;-3.80;99.90;;;;;;5013795;28;20030;-76
2023/01/23 02:30:08;;;;;;;40.27;22.37;;;-3.80;99.90;;;;;;5015342;28;20026;-76
2023/01/23 02:32:37;;;;;;;42.50;23.77;;;-3.80;99.90;;;;;;5024126;28;20450;-76
2023/01/23 02:35:10;;;;;;;42.97;23.30;;;-3.80;99.90;;;;;;5033106;28;20022;-76
2023/01/23 02:37:41;;;;;;;42.07;23.03;;;-3.70;99.90;;;;;;5028318;28;20020;-76
2023/01/23 02:40:08;;;;;;;45.93;25.50;;;-3.70;99.90;;;;;;5032812;28;20367;-76
2023/01/23 02:42:36;;;;;;;45.37;24.57;;;-3.70;99.90;;;;;;5033019;28;20060;-76
2023/01/23 02:45:02;;;;;;;48.30;26.83;;;-3.70;99.90;;;;;;5032878;28;20026;-76
2023/01/23 02:47:28;;;;;;;46.57;25.63;;;-3.70;99.90;;;;;;5032861;28;20033;-76
2023/01/23 02:49:53;;;;;;;46.23;25.60;;;-3.60;99.90;;;;;;5017697;28;20021;-76
2023/01/23 02:52:19;;;;;;;49.93;25.93;;;-3.60;99.90;;;;;;5033010;28;20014;-75
2023/01/23 02:54:45;;;;;;;46.73;25.13;;;-3.50;99.90;;;;;;5033171;28;20028;-74
2023/01/23 02:57:11;;;;;;;49.27;25.87;;;-3.50;99.90;;;;;;5015473;28;20026;-76
2023/01/23 03:02:21;;;;;;;50.10;27.13;;;-3.50;99.90;;;;;;5033432;28;20170;-77
2023/01/23 03:04:47;;;;;;;52.13;28.40;;;-3.40;99.90;;;;;;5015666;28;20060;-76
2023/01/23 03:07:12;;;;;;;49.67;26.07;;;-3.40;99.90;;;;;;5033004;28;20018;-76
2023/01/23 03:09:38;;;;;;;48.03;25.13;;;-3.30;99.90;;;;;;5033093;28;20032;-76
2023/01/23 03:12:04;;;;;;;52.53;26.57;;;-3.30;99.90;;;;;;5032911;28;20463;-76
2023/01/23 03:14:31;;;;;;;52.50;27.03;;;-3.20;99.90;;;;;;5032833;28;20111;-76
2023/01/23 03:16:57;;;;;;;49.07;26.57;;;-3.20;99.90;;;;;;5014982;28;20029;-77
2023/01/23 03:19:25;;;;;;;50.30;25.60;;;-3.20;99.90;;;;;;5033056;28;20030;-76
2023/01/23 03:21:52;;;;;;;49.90;27.13;;;-3.10;99.90;;;;;;5032639;28;20032;-76
2023/01/23 03:24:18;;;;;;;55.23;26.77;;;-3.10;99.90;;;;;;5033095;28;20108;-76
2023/01/23 03:26:46;;;;;;;51.60;28.07;;;-3.10;99.90;;;;;;5032536;28;20021;-76
2023/01/23 03:31:59;;;;;;;52.50;27.97;;;-3.10;99.90;;;;;;5033139;28;20084;-76
2023/01/23 03:34:25;;;;;;;48.53;26.10;;;-3.10;99.90;;;;;;5014870;28;20029;-77
2023/01/23 03:36:50;;;;;;;50.67;27.37;;;-3.10;99.90;;;;;;5032784;28;20025;-76
2023/01/23 03:42:00;;;;;;;44.67;24.80;;;-3.10;99.90;;;;;;5032378;28;20060;-76
2023/01/23 03:44:25;;;;;;;47.83;26.30;;;-3.10;99.90;;;;;;5032467;28;20025;-77
2023/01/23 03:46:51;;;;;;;46.97;25.73;;;-3.20;99.90;;;;;;5032417;28;20022;-76
2023/01/23 03:49:17;;;;;;;49.20;25.60;;;-3.20;99.90;;;;;;5032765;28;20021;-76
2023/01/23 03:51:46;;;;;;;52.63;27.50;;;-3.20;99.90;;;;;;5032353;28;20480;-76
2023/01/23 03:54:13;;;;;;;50.33;27.87;;;-3.20;99.90;;;;;;5036502;28;20173;-77
2023/01/23 03:56:39;;;;;;;50.73;26.57;;;-3.10;99.90;;;;;;5018158;28;20103;-76
2023/01/23 03:59:05;;;;;;;50.20;25.40;;;-3.10;99.90;;;;;;5036620;28;20108;-76
2023/01/23 04:01:30;;;;;;;50.40;26.23;;;-3.10;99.90;;;;;;5036409;28;20482;-75
2023/01/23 04:03:56;;;;;;;49.77;26.03;;;-3.10;99.90;;;;;;5036074;28;20417;-76
2023/01/23 04:06:21;;;;;;;50.00;24.73;;;-3.10;99.90;;;;;;5036160;28;20028;-76
2023/01/23 04:08:47;;;;;;;48.90;25.97;;;-3.10;99.90;;;;;;5018424;28;20041;-77
2023/01/23 04:11:13;;;;;;;50.67;26.17;;;-3.10;99.90;;;;;;5036523;28;20014;-76
2023/01/23 04:13:39;;;;;;;48.70;26.17;;;-3.10;99.90;;;;;;5035969;28;20026;-76
2023/01/23 04:16:05;;;;;;;55.93;27.57;;;-3.10;99.90;;;;;;5035780;28;20095;-76
2023/01/23 04:18:31;;;;;;;55.00;26.90;;;-3.10;99.90;;;;;;5035996;28;20029;-76
2023/01/23 04:20:57;;;;;;;50.30;26.07;;;-3.10;99.90;;;;;;5035730;28;20052;-76
2023/01/23 04:23:24;;;;;;;51.70;27.33;;;-3.10;99.90;;;;;;5018195;28;20053;-76
2023/01/23 04:25:51;;;;;;;52.97;27.73;;;-3.10;99.90;;;;;;5017856;28;20104;-77
2023/01/23 04:28:17;;;;;;;54.87;27.47;;;-3.10;99.90;;;;;;5017571;28;20072;-77
2023/01/23 04:30:42;;;;;;;53.53;27.30;;;-3.10;99.90;;;;;;5035767;28;20041;-76
2023/01/23 04:33:08;;;;;;;53.43;27.73;;;-3.00;99.90;;;;;;5035382;28;20029;-76
2023/01/23 04:35:34;;;;;;;55.53;28.27;;;-3.00;99.90;;;;;;5035491;28;20037;-76
2023/01/23 04:38:00;;;;;;;53.27;27.97;;;-3.00;99.90;;;;;;5017821;28;20079;-76
2023/01/23 04:40:25;;;;;;;53.83;28.70;;;-3.00;99.90;;;;;;5035280;28;20056;-77
2023/01/23 04:42:51;;;;;;;57.80;29.03;;;-2.90;99.90;;;;;;5035364;28;20589;-76
2023/01/23 04:45:17;;;;;;;49.57;26.80;;;-2.90;99.90;;;;;;5035373;28;20018;-76
2023/01/23 04:47:42;;;;;;;49.17;27.10;;;-2.90;99.90;;;;;;5035362;28;20033;-76
2023/01/23 04:50:08;;;;;;;57.17;28.93;;;-2.90;99.90;;;;;;5035276;28;20021;-77
2023/01/23 04:52:34;;;;;;;52.60;27.10;;;-2.80;99.90;;;;;;5035307;28;20398;-77
2023/01/23 04:54:59;;;;;;;51.67;28.17;;;-2.80;99.90;;;;;;5034942;28;20113;-76
2023/01/23 04:57:25;;;;;;;51.27;26.50;;;-2.80;99.90;;;;;;5017221;28;20505;-76
2023/01/23 04:59:51;;;;;;;53.13;27.77;;;-2.70;99.90;;;;;;5034854;28;20032;-76
2023/01/23 05:02:16;;;;;;;51.63;26.57;;;-2.70;99.90;;;;;;5034644;28;20468;-77
2023/01/23 05:04:42;;;;;;;52.13;28.50;;;-2.70;99.90;;;;;;5033776;28;20521;-76
2023/01/23 05:07:11;;;;;;;50.60;27.97;;;-2.70;99.90;;;;;;5035161;28;20022;-76
2023/01/23 05:09:37;;;;;;;52.37;27.60;;;-2.70;99.90;;;;;;5035034;28;20017;-77
2023/01/23 05:12:04;;;;;;;53.23;28.00;;;-2.70;99.90;;;;;;5017224;28;20104;-76
2023/01/23 05:14:29;;;;;;;52.73;27.90;;;-2.70;99.90;;;;;;5016981;28;20529;-76
2023/01/23 05:16:55;;;;;;;57.13;28.17;;;-2.70;99.90;;;;;;5016395;28;20100;-77
2023/01/23 05:19:21;;;;;;;54.30;28.47;;;-2.60;99.90;;;;;;5003263;28;20025;-81
2023/01/23 05:21:46;;;;;;;55.33;30.10;;;-2.60;99.90;;;;;;5016715;28;20098;-81
2023/01/23 05:24:12;;;;;;;68.30;38.37;;;-2.60;99.90;;;;;;5016666;28;20065;-81
2023/01/23 05:26:38;;;;;;;150.93;128.63;;;-2.60;99.90;;;;;;5017954;28;20788;-81
2023/01/23 05:29:03;;;;;;;66.10;44.50;;;-2.60;99.90;;;;;;5016676;28;20482;-81
2023/01/23 05:31:29;;;;;;;53.83;32.43;;;-2.60;99.90;;;;;;5017189;28;20029;-81
2023/01/23 05:33:54;;;;;;;48.37;27.07;;;-2.60;99.90;;;;;;5015707;28;21401;-81
2023/01/23 05:36:20;;;;;;;47.37;27.37;;;-2.50;99.90;;;;;;5028231;28;20044;-77
2023/01/23 05:38:46;;;;;;;49.63;26.73;;;-2.60;99.90;;;;;;5034409;28;20073;-76
2023/01/23 05:41:11;;;;;;;48.17;26.77;;;-2.60;99.90;;;;;;5029081;28;20206;-77
2023/01/23 05:43:37;;;;;;;48.50;27.70;;;-2.50;99.90;;;;;;5014533;28;20087;-77
2023/01/23 05:46:02;;;;;;;49.33;26.17;;;-2.50;99.90;;;;;;5033674;28;20029;-76
2023/01/23 05:48:28;;;;;;;47.17;26.73;;;-2.50;99.90;;;;;;5034472;28;20022;-77
2023/01/23 05:50:54;;;;;;;50.83;28.60;;;-2.50;99.90;;;;;;5034233;28;20028;-77
2023/01/23 05:53:19;;;;;;;50.07;28.93;;;-2.50;99.90;;;;;;5034127;28;20086;-77
2023/01/23 05:55:45;;;;;;;50.83;28.90;;;-2.50;99.90;;;;;;5034317;28;20128;-77
2023/01/23 05:58:10;;;;;;;51.53;28.63;;;-2.50;99.90;;;;;;5016033;28;20025;-77
2023/01/23 06:00:36;;;;;;;47.93;26.13;;;-2.50;99.90;;;;;;5033947;28;20175;-77
2023/01/23 06:03:02;;;;;;;51.20;27.07;;;-2.50;99.90;;;;;;5034184;28;20026;-79
2023/01/23 06:05:27;;;;;;;47.87;27.73;;;-2.50;99.90;;;;;;5033953;28;20056;-78
2023/01/23 06:07:53;;;;;;;48.87;26.70;;;-2.50;99.90;;;;;;5033825;28;20100;-79
2023/01/23 06:10:18;;;;;;;47.57;27.13;;;-2.50;99.90;;;;;;5033968;28;20028;-79
2023/01/23 06:12:44;;;;;;;48.10;26.63;;;-2.50;99.90;;;;;;5025494;28;20366;-79
2023/01/23 06:15:10;;;;;;;50.10;26.27;;;-2.40;99.90;;;;;;5029119;28;20454;-80
2023/01/23 06:17:35;;;;;;;46.40;26.43;;;-2.40;99.90;;;;;;4996861;28;20026;-77
2023/01/23 06:20:02;;;;;;;52.07;27.93;;;-2.40;99.90;;;;;;4996098;28;20049;-79
2023/01/23 06:22:27;;;;;;;46.60;27.00;;;-2.40;99.90;;;;;;5013954;28;20050;-79
2023/01/23 06:24:53;;;;;;;51.63;27.30;;;-2.50;99.90;;;;;;5013563;28;20112;-80
2023/01/23 06:27:18;;;;;;;50.57;27.77;;;-2.40;99.90;;;;;;5015588;28;20029;-77
2023/01/23 06:29:44;;;;;;;49.47;26.63;;;-2.50;99.90;;;;;;5016460;28;20474;-78
2023/01/23 06:32:09;;;;;;;45.93;26.83;;;-2.50;99.90;;;;;;5014481;28;20029;-84
2023/01/23 06:34:35;;;;;;;52.53;28.23;;;-2.40;99.90;;;;;;5012200;28;20033;-84
2023/01/23 06:37:01;;;;;;;53.03;28.00;;;-2.40;99.90;;;;;;5012391;28;20033;-84
2023/01/23 06:39:29;;;;;;;51.03;27.07;;;-2.40;99.90;;;;;;5013954;28;20029;-84
2023/01/23 06:41:55;;;;;;;57.17;29.90;;;-2.40;99.90;;;;;;5014092;28;20129;-84
2023/01/23 06:44:20;;;;;;;54.53;29.33;;;-2.40;99.90;;;;;;5013925;28;20034;-84
2023/01/23 06:46:46;;;;;;;61.83;34.40;;;-2.40;99.90;;;;;;5013535;28;20037;-84
2023/01/23 06:49:12;;;;;;;50.47;28.27;;;-2.40;99.90;;;;;;5013939;28;20038;-84
2023/01/23 06:51:37;;;;;;;51.33;28.30;;;-2.40;99.90;;;;;;5014957;28;20037;-84
2023/01/23 06:54:03;;;;;;;54.33;28.33;;;-2.40;99.90;;;;;;5014278;28;20025;-83
2023/01/23 06:56:28;;;;;;;52.10;28.13;;;-2.40;99.90;;;;;;5014619;28;20022;-83
2023/01/23 06:58:54;;;;;;;52.97;29.27;;;-2.40;99.90;;;;;;5032574;28;20025;-77
2023/01/23 07:01:19;;;;;;;58.83;31.07;;;-2.40;99.90;;;;;;5032923;28;20055;-77
2023/01/23 07:03:45;;;;;;;61.33;31.47;;;-2.40;99.90;;;;;;5009556;28;20022;-76
2023/01/23 07:06:12;;;;;;;55.27;29.30;;;-2.40;99.90;;;;;;5028930;28;20355;-76
2023/01/23 07:08:39;;;;;;;57.43;30.60;;;-2.40;99.90;;;;;;5032203;28;20083;-80
2023/01/23 07:11:05;;;;;;;67.17;34.17;;;-2.40;99.90;;;;;;5008833;28;20076;-81
2023/01/23 07:13:31;;;;;;;71.10;31.93;;;-2.40;99.90;;;;;;5007710;28;20029;-81
2023/01/23 07:15:57;;;;;;;72.50;34.03;;;-2.30;99.90;;;;;;5008584;28;21019;-81
2023/01/23 07:18:23;;;;;;;76.60;34.73;;;-2.30;99.90;;;;;;5007484;28;20045;-81
2023/01/23 07:20:49;;;;;;;73.83;33.60;;;-2.30;99.90;;;;;;4988331;28;20529;-81
2023/01/23 07:23:15;;;;;;;78.03;34.87;;;-2.30;99.90;;;;;;5006018;28;20037;-81
2023/01/23 07:25:41;;;;;;;84.17;35.10;;;-2.30;99.90;;;;;;5008927;28;20361;-79
2023/01/23 07:28:07;;;;;;;77.67;33.93;;;-2.30;99.90;;;;;;5014035;28;20087;-83
2023/01/23 07:30:33;;;;;;;78.57;34.03;;;-2.20;99.90;;;;;;5017620;28;20760;-83
2023/01/23 07:32:59;;;;;;;89.83;37.00;;;-2.20;99.90;;;;;;5014059;28;20029;-81
2023/01/23 07:35:25;;;;;;;85.10;36.80;;;-2.20;99.90;;;;;;5034840;28;20038;-77
2023/01/23 07:37:50;;;;;;;85.77;35.13;;;-2.20;99.90;;;;;;5036658;28;20075;-77
2023/01/23 07:40:16;;;;;;;80.97;36.33;;;-2.20;99.90;;;;;;5036088;28;20048;-79
2023/01/23 07:42:42;;;;;;;86.63;35.37;;;-2.20;99.90;;;;;;5018468;28;20029;-80
2023/01/23 07:45:09;;;;;;;90.57;37.10;;;-2.10;99.90;;;;;;5036594;28;20028;-79
2023/01/23 07:47:38;;;;;;;89.83;38.47;;;-2.20;99.90;;;;;;5036488;28;20026;-79
2023/01/23 07:50:10;;;;;;;93.77;36.93;;;-2.10;99.90;;;;;;5036435;28;20037;-80
2023/01/23 07:52:35;;;;;;;92.77;37.47;;;-2.10;99.90;;;;;;5018180;28;20353;-79
2023/01/23 07:55:01;;;;;;;91.67;35.50;;;-2.10;99.90;;;;;;5036388;28;20030;-79
2023/01/23 07:57:27;;;;;;;91.27;36.90;;;-1.90;99.90;;;;;;5036262;28;20017;-80
2023/01/23 07:59:53;;;;;;;92.57;35.67;;;-2.00;99.90;;;;;;5036016;28;20453;-80
2023/01/23 08:02:18;;;;;;;77.77;33.30;;;-1.90;99.90;;;;;;5036053;28;20022;-79
2023/01/23 08:04:44;;;;;;;82.40;32.13;;;-1.90;99.90;;;;;;5036078;28;20029;-80
2023/01/23 08:07:10;;;;;;;80.33;32.77;;;-1.90;99.90;;;;;;5036033;28;20093;-80
2023/01/23 08:09:35;;;;;;;74.33;32.13;;;-1.90;99.90;;;;;;5036172;28;20104;-80
2023/01/23 08:12:01;;;;;;;72.70;31.27;;;-1.90;99.90;;;;;;5034609;28;20101;-79
2023/01/23 08:14:27;;;;;;;66.67;29.43;;;-1.90;99.90;;;;;;5035974;28;20353;-79
2023/01/23 08:16:53;;;;;;;65.20;31.07;;;-1.80;99.90;;;;;;5033315;28;20380;-83
2023/01/23 08:19:18;;;;;;;73.53;30.63;;;-1.80;99.90;;;;;;4999650;28;20112;-81
2023/01/23 08:21:45;;;;;;;65.07;29.50;;;-1.70;99.90;;;;;;5017834;28;20030;-83
2023/01/23 08:24:13;;;;;;;57.07;26.23;;;-1.70;99.90;;;;;;5022786;28;20091;-81
2023/01/23 08:26:40;;;;;;;60.47;27.10;;;-1.70;99.90;;;;;;5021965;28;20108;-79
2023/01/23 08:29:06;;;;;;;61.93;27.57;;;-1.70;99.90;;;;;;5035466;28;20025;-79
2023/01/23 08:31:32;;;;;;;58.30;26.87;;;-1.70;99.90;;;;;;5035585;28;20030;-79
2023/01/23 08:33:58;;;;;;;63.43;29.20;;;-1.60;99.90;;;;;;5035723;28;20509;-78
2023/01/23 08:36:23;;;;;;;59.40;28.77;;;-1.60;99.90;;;;;;5035613;28;20026;-80
2023/01/23 08:38:49;;;;;;;52.90;25.60;;;-1.60;99.90;;;;;;5035392;28;20082;-79
2023/01/23 08:41:15;;;;;;;52.93;26.17;;;-1.60;99.90;;;;;;5026204;28;20058;-84
2023/01/23 08:43:41;;;;;;;51.03;25.50;;;-1.50;99.90;;;;;;5013988;28;20064;-84
2023/01/23 08:46:08;;;;;;;49.57;25.37;;;-1.50;99.90;;;;;;5017248;28;20025;-84
2023/01/23 08:48:34;;;;;;;57.23;27.77;;;-1.40;99.90;;;;;;5015226;28;20026;-84
2023/01/23 08:51:05;;;;;;;53.23;25.70;;;-1.40;99.90;;;;;;4996484;28;20025;-84
2023/01/23 08:53:32;;;;;;;52.97;28.07;;;-1.40;99.90;;;;;;5015312;28;20056;-84
2023/01/23 08:56:02;;;;;;;57.67;24.40;;;-1.40;99.90;;;;;;5016340;28;20029;-84
2023/01/23 08:58:28;;;;;;;53.90;26.57;;;-1.40;99.90;;;;;;5016138;28;20061;-84
2023/01/23 09:00:53;;;;;;;48.13;24.40;;;-1.30;99.90;;;;;;5014993;28;20183;-84
2023/01/23 09:03:19;;;;;;;52.10;25.93;;;-1.30;99.90;;;;;;5014683;28;21400;-84
2023/01/23 09:05:45;;;;;;;47.67;24.50;;;-1.30;99.90;;;;;;4996145;28;20520;-84
2023/01/23 09:08:11;;;;;;;54.90;29.77;;;-1.20;99.90;;;;;;5022642;28;20080;-84
2023/01/23 09:10:36;;;;;;;49.10;25.77;;;-1.20;99.90;;;;;;5000938;28;20021;-82
2023/01/23 09:13:02;;;;;;;48.67;24.67;;;-1.20;99.90;;;;;;5018086;28;20034;-84
2023/01/23 09:15:27;;;;;;;48.30;25.17;;;-1.20;99.90;;;;;;5022652;28;20029;-78
2023/01/23 09:17:53;;;;;;;50.10;25.00;;;-1.10;99.90;;;;;;5030427;28;20021;-81
2023/01/23 09:20:19;;;;;;;46.27;24.07;;;-1.10;99.90;;;;;;5034630;28;20022;-80
2023/01/23 09:22:44;;;;;;;46.27;24.17;;;-1.10;99.90;;;;;;5034451;28;20033;-80
2023/01/23 09:25:11;;;;;;;43.13;23.87;;;-1.00;99.90;;;;;;5034448;28;20030;-80
2023/01/23 09:27:37;;;;;;;41.87;22.93;;;-1.00;99.90;;;;;;5016973;28;20025;-80
2023/01/23 09:30:03;;;;;;;49.03;24.30;;;-1.00;99.90;;;;;;5034667;28;20370;-80
2023/01/23 09:32:28;;;;;;;46.70;24.03;;;-1.00;99.90;;;;;;5034290;28;20029;-78
2023/01/23 09:34:54;;;;;;;56.30;30.63;;;-0.90;99.90;;;;;;5034744;28;20026;-78
2023/01/23 09:37:20;;;;;;;49.40;27.70;;;-0.90;99.90;;;;;;5034459;28;20374;-78
2023/01/23 09:39:46;;;;;;;49.13;26.13;;;-0.80;99.90;;;;;;5034377;28;20061;-79
2023/01/23 09:42:21;;;;;;;45.37;23.53;;;-0.80;99.90;;;;;;5023893;28;20036;-81
2023/01/23 09:44:53;;;;;;;;;;;-0.70;99.90;;;;;;4997481;28;20718;-84
2023/01/23 09:47:35;;;;;;;42.83;24.40;;;-0.70;99.90;;;;;;5005132;28;20638;-84
2023/01/23 09:50:15;;;;;;;42.07;22.17;;;-0.70;99.90;;;;;;5015441;28;20824;-83
2023/01/23 09:52:53;;;;;;;41.33;22.63;;;-0.70;99.90;;;;;;5018267;28;20024;-79
2023/01/23 09:55:30;;;;;;;43.50;24.43;;;-0.60;99.90;;;;;;5020785;28;20048;-79
2023/01/23 09:57:58;;;;;;;41.07;24.10;;;-0.60;99.90;;;;;;5034287;28;20109;-79
2023/01/23 10:00:30;;;;;;;46.87;24.77;;;-0.60;99.90;;;;;;5034204;28;20083;-79
2023/01/23 10:03:01;;;;;;;46.27;25.03;;;-0.50;99.90;;;;;;5022044;28;20030;-84
2023/01/23 10:05:45;;;;;;;52.80;24.10;;;-0.50;99.90;;;;;;5014410;28;20037;-83
2023/01/23 10:08:45;;;;;;;53.47;22.60;;;-0.50;99.90;;;;;;5016472;28;20029;-81
2023/01/23 10:11:48;;;;;;;53.13;23.50;;;-0.50;99.90;;;;;;5022640;28;20071;-77
2023/01/23 10:14:35;;;;;;;49.63;24.13;;;-0.50;99.90;;;;;;5032578;28;20095;-76
2023/01/23 10:17:21;;;;;;;44.60;23.80;;;-0.50;99.90;;;;;;5022469;28;20049;-78
2023/01/23 10:19:59;;;;;;;42.93;20.80;;;-0.50;99.90;;;;;;4995624;28;20057;-83
2023/01/23 10:22:32;;;;;;;52.03;25.73;;;-0.50;99.90;;;;;;5017825;28;20033;-84
2023/01/23 10:25:20;;;;;;;40.40;22.07;;;-0.50;99.90;;;;;;5024342;28;20016;-77
2023/01/23 10:27:48;;;;;;;42.03;21.67;;;-0.40;99.90;;;;;;5033455;28;20021;-77
2023/01/23 10:30:18;;;;;;;40.70;22.33;;;-0.40;99.90;;;;;;5015547;28;20026;-77
2023/01/23 10:33:12;;;;;;;41.00;23.13;;;-0.40;99.90;;;;;;5033163;28;20087;-80
2023/01/23 10:35:55;;;;;;;44.67;22.33;;;-0.40;99.90;;;;;;5030389;28;20030;-80
2023/01/23 10:38:45;;;;;;;44.47;24.10;;;-0.40;99.90;;;;;;5015764;28;20069;-81
2023/01/23 10:41:13;;;;;;;42.50;23.20;;;-0.40;99.90;;;;;;5033057;28;20482;-81
2023/01/23 10:43:40;;;;;;;43.40;22.50;;;-0.40;99.90;;;;;;5033259;28;20450;-80
2023/01/23 10:46:37;;;;;;;39.70;23.63;;;-0.40;99.90;;;;;;5033119;28;20047;-80
2023/01/23 10:49:03;;;;;;;47.87;24.43;;;-0.40;99.90;;;;;;5018604;28;20018;-85
2023/01/23 10:51:34;;;;;;;41.83;22.87;;;-0.40;99.90;;;;;;5018700;28;20338;-77
2023/01/23 10:54:17;;;;;;;41.70;22.13;;;-0.30;99.90;;;;;;5018074;28;20508;-79
2023/01/23 10:56:57;;;;;;;41.53;22.90;;;-0.30;99.90;;;;;;5012765;28;20036;-80
2023/01/23 10:59:53;;;;;;;49.50;26.73;;;-0.30;99.90;;;;;;5015770;28;20511;-82
2023/01/23 11:02:33;;;;;;;38.70;21.37;;;-0.20;99.90;;;;;;5016125;28;20569;-81
2023/01/23 11:05:02;;;;;;;39.90;21.07;;;-0.10;99.90;;;;;;5014932;28;20026;-78
2023/01/23 11:07:35;;;;;;;43.27;22.03;;;-0.10;99.90;;;;;;4995067;28;20026;-80
2023/01/23 11:10:19;;;;;;;41.40;21.20;;;0.00;99.90;;;;;;5016201;28;20018;-82
2023/01/23 11:12:50;;;;;;;33.83;20.77;;;0.00;99.90;;;;;;5025929;28;20101;-77
2023/01/23 11:15:25;;;;;;;33.50;19.30;;;0.00;99.90;;;;;;5032839;28;20361;-76
2023/01/23 11:17:53;;;;;;;37.00;19.92;;;0.10;99.90;;;;;;5032155;28;20017;-77
2023/01/23 11:20:41;;;;;;;35.03;20.20;;;0.20;99.90;;;;;;5033003;28;20029;-76
2023/01/23 11:23:07;;;;;;;34.60;20.47;;;0.30;99.90;;;;;;5024614;28;20021;-77
2023/01/23 11:25:38;;;;;;;35.67;19.77;;;0.30;99.90;;;;;;5032443;28;20025;-77
2023/01/23 11:28:22;;;;;;;36.23;21.33;;;0.30;99.90;;;;;;5032567;28;20140;-77
2023/01/23 11:31:03;;;;;;;34.17;19.57;;;0.30;99.90;;;;;;5014629;28;20013;-83
2023/01/23 11:33:36;;;;;;;33.63;20.47;;;0.30;99.90;;;;;;5014814;28;20029;-83
2023/01/23 11:36:07;;;;;;;34.97;20.80;;;0.40;99.90;;;;;;4996357;28;20043;-80
2023/01/23 11:38:42;;;;;;;34.27;20.00;;;0.40;99.90;;;;;;5012641;28;20025;-80
2023/01/23 11:41:10;;;;;;;37.40;20.50;;;0.40;99.90;;;;;;5013257;28;20051;-80
2023/01/23 11:43:37;;;;;;;35.70;19.80;;;0.40;99.90;;;;;;5012119;28;20026;-80
2023/01/23 11:46:20;;;;;;;38.90;21.13;;;0.40;99.90;;;;;;5011841;28;20045;-78
2023/01/23 11:49:23;;;;;;;43.17;19.93;;;0.40;99.90;;;;;;4993818;28;20049;-78
2023/01/23 11:52:19;;;;;;;36.13;20.73;;;0.40;99.90;;;;;;4992601;28;20037;-80
2023/01/23 11:55:11;;;;;;;36.78;21.48;;;0.30;99.90;;;;;;5029718;28;20025;-80
2023/01/23 11:58:13;;;;;;;39.67;21.83;;;0.20;99.90;;;;;;5032817;28;20021;-80
2023/01/23 12:01:19;;;;;;;38.10;21.17;;;0.20;99.90;;;;;;5014604;28;20042;-83
2023/01/23 12:04:17;;;;;;;35.85;20.55;;;0.20;99.90;;;;;;4907916;29;20051;-76
2023/01/23 12:06:58;;;;;;;36.67;21.60;;;0.20;99.90;;;;;;5009436;28;20022;-77
2023/01/23 12:09:31;;;;;;;39.57;21.37;;;0.10;99.90;;;;;;5028078;28;20021;-76
2023/01/23 12:12:15;;;;;;;37.30;21.40;;;0.10;99.90;;;;;;5032143;28;20061;-76
2023/01/23 12:15:13;;;;;;;40.57;20.87;;;0.10;99.90;;;;;;5034659;28;20108;-76
2023/01/23 12:17:41;;;;;;;34.67;20.33;;;0.10;99.90;;;;;;5033829;28;20330;-76
2023/01/23 12:20:37;;;;;;;38.40;21.47;;;0.10;99.90;;;;;;5031191;28;20029;-76
2023/01/23 12:23:18;;;;;;;;;;;0.10;99.90;;;;;;5033893;28;20021;-76
2023/01/23 12:25:52;;;;;;;39.63;22.13;;;0.10;99.90;;;;;;5027754;28;19958;-76
2023/01/23 12:28:40;;;;;;;37.17;21.53;;;0.10;99.90;;;;;;5035212;28;20478;-77
2023/01/23 12:31:17;;;;;;;33.97;19.57;;;0.10;99.90;;;;;;5017314;28;20489;-76
2023/01/23 12:34:26;;;;;;;35.03;20.23;;;0.20;99.90;;;;;;5034918;28;20091;-76
2023/01/23 12:37:14;;;;;;;36.70;21.10;;;0.20;99.90;;;;;;4984941;28;20079;-76
2023/01/23 12:39:54;;;;;;;40.23;22.27;;;0.30;99.90;;;;;;5035077;28;20092;-76
2023/01/23 12:42:29;;;;;;;36.53;20.87;;;0.30;99.90;;;;;;5037495;28;20059;-76
2023/01/23 12:45:22;;;;;;;34.65;21.08;;;0.30;99.90;;;;;;5035486;28;20064;-76
2023/01/23 12:48:12;;;;;;;37.77;19.83;;;0.30;99.90;;;;;;5012073;28;20028;-76
2023/01/23 12:51:00;;;;;;;38.57;21.50;;;0.30;99.90;;;;;;5034794;28;20025;-75